Ana Sayfa
METAR-TAF:

METAR-TAF

Havaalanları :

Eastern Slopes Regional Airport

Fryeburg, Maine, Amerika Birleşik Devletleri

Enlem: 43-59-21N, Boylam: 070-57-01W, yükseklik: 137 m

Güncel hava durumu gözlemi

Rapor saat 05:54 UTC de 27 dakika önce yapıldı.
Sakin rüzgar
Sıcaklık 16°C
Nem 94%
Basınç 1013 hPa
Görüş mesafesi: 16.1 km
Açık gökyüzü

METAR: KIZG 240554Z AUTO 00000KT 10SM CLR 16/15 A2992 RMK AO2 SLP132 T01610150 10189 20161 53002

Saat: 02:21 (06:21 UTC)


TAF: eksik

4.000'den fazla havaalanı için hava durumu gözlemleri ve tahminleri (METAR ve TAF raporları).

Kullanılabilir istasyonlar harita üzerinde sarı ve kırmızı noktalarla gösterilir.

İstasyonun adını görmek için fareyi noktanın üzerinde gezdirin.

Sonrasında hava gözlem ve tahminlerini görmek için tıklayın.

Haritayı değiştirmek için: yaklaştırmak için siyah artı işaretli yeşil düğmeye ve uzaklaştırmak için de eksi işaretli düğmeye hızla tıklayın; bitişik haritalar için yeşil okları kullanın.


METAR-TAF: